sensor_id;sensor_type;location;lat;lon;timestamp;temperature;humidity
27747;DHT22;15138;51.012;4.692;2023-02-28T00:01:28;1.00;99.90
27747;DHT22;15138;51.012;4.692;2023-02-28T00:03:57;1.10;99.90
27747;DHT22;15138;51.012;4.692;2023-02-28T00:06:27;1.10;99.90
27747;DHT22;15138;51.012;4.692;2023-02-28T00:08:55;1.10;99.90
27747;DHT22;15138;51.012;4.692;2023-02-28T00:11:24;1.00;99.90
27747;DHT22;15138;51.012;4.692;2023-02-28T00:13:52;1.10;99.90
27747;DHT22;15138;51.012;4.692;2023-02-28T00:16:22;1.00;99.90
27747;DHT22;15138;51.012;4.692;2023-02-28T00:18:52;1.00;99.90
27747;DHT22;15138;51.012;4.692;2023-02-28T00:21:20;1.10;99.90
27747;DHT22;15138;51.012;4.692;2023-02-28T00:23:49;1.10;99.90
27747;DHT22;15138;51.012;4.692;2023-02-28T00:26:17;1.10;99.90
27747;DHT22;15138;51.012;4.692;2023-02-28T00:28:47;1.10;99.90
27747;DHT22;15138;51.012;4.692;2023-02-28T00:31:16;1.10;99.90
27747;DHT22;15138;51.012;4.692;2023-02-28T00:33:44;1.10;99.90
27747;DHT22;15138;51.012;4.692;2023-02-28T00:36:14;1.10;99.90
27747;DHT22;15138;51.012;4.692;2023-02-28T00:38:43;1.00;99.90
27747;DHT22;15138;51.012;4.692;2023-02-28T00:41:11;1.10;99.90
27747;DHT22;15138;51.012;4.692;2023-02-28T00:43:39;1.00;99.90
27747;DHT22;15138;51.012;4.692;2023-02-28T00:46:08;1.10;99.90
27747;DHT22;15138;51.012;4.692;2023-02-28T00:48:36;1.00;99.90
27747;DHT22;15138;51.012;4.692;2023-02-28T00:51:05;1.00;99.90
27747;DHT22;15138;51.012;4.692;2023-02-28T00:53:35;1.00;99.90
27747;DHT22;15138;51.012;4.692;2023-02-28T00:56:04;1.00;99.90
27747;DHT22;15138;51.012;4.692;2023-02-28T00:58:32;1.00;99.90
27747;DHT22;15138;51.012;4.692;2023-02-28T01:01:00;1.00;99.90
27747;DHT22;15138;51.012;4.692;2023-02-28T01:03:29;1.00;99.90
27747;DHT22;15138;51.012;4.692;2023-02-28T01:05:57;1.00;99.90
27747;DHT22;15138;51.012;4.692;2023-02-28T01:08:26;1.00;99.90
27747;DHT22;15138;51.012;4.692;2023-02-28T01:10:56;1.00;99.90
27747;DHT22;15138;51.012;4.692;2023-02-28T01:13:24;1.00;99.90
27747;DHT22;15138;51.012;4.692;2023-02-28T01:15:55;1.00;99.90
27747;DHT22;15138;51.012;4.692;2023-02-28T01:18:24;0.90;99.90
27747;DHT22;15138;51.012;4.692;2023-02-28T01:20:53;0.90;99.90
27747;DHT22;15138;51.012;4.692;2023-02-28T01:23:22;0.90;99.90
27747;DHT22;15138;51.012;4.692;2023-02-28T01:25:51;0.90;99.90
27747;DHT22;15138;51.012;4.692;2023-02-28T01:28:21;0.90;99.90
27747;DHT22;15138;51.012;4.692;2023-02-28T01:30:49;0.80;99.90
27747;DHT22;15138;51.012;4.692;2023-02-28T01:33:19;0.80;99.90
27747;DHT22;15138;51.012;4.692;2023-02-28T01:35:47;0.80;99.90
27747;DHT22;15138;51.012;4.692;2023-02-28T01:38:15;0.80;99.90
27747;DHT22;15138;51.012;4.692;2023-02-28T01:40:49;0.90;99.90
27747;DHT22;15138;51.012;4.692;2023-02-28T01:43:23;0.80;99.90
27747;DHT22;15138;51.012;4.692;2023-02-28T01:45:53;0.80;99.90
27747;DHT22;15138;51.012;4.692;2023-02-28T01:48:24;0.80;99.90
27747;DHT22;15138;51.012;4.692;2023-02-28T01:50:55;0.70;99.90
27747;DHT22;15138;51.012;4.692;2023-02-28T01:53:29;0.80;99.90
27747;DHT22;15138;51.012;4.692;2023-02-28T01:55:58;0.80;99.90
27747;DHT22;15138;51.012;4.692;2023-02-28T01:58:28;0.70;99.90
27747;DHT22;15138;51.012;4.692;2023-02-28T02:00:57;0.70;99.90
27747;DHT22;15138;51.012;4.692;2023-02-28T02:03:25;0.70;99.90
27747;DHT22;15138;51.012;4.692;2023-02-28T02:05:53;0.70;99.90
27747;DHT22;15138;51.012;4.692;2023-02-28T02:08:24;0.70;99.90
27747;DHT22;15138;51.012;4.692;2023-02-28T02:10:54;0.70;99.90
27747;DHT22;15138;51.012;4.692;2023-02-28T02:13:42;0.60;99.90
27747;DHT22;15138;51.012;4.692;2023-02-28T02:16:23;0.60;99.90
27747;DHT22;15138;51.012;4.692;2023-02-28T02:19:01;0.60;99.90
27747;DHT22;15138;51.012;4.692;2023-02-28T02:21:56;0.60;99.90
27747;DHT22;15138;51.012;4.692;2023-02-28T02:24:47;0.60;99.90
27747;DHT22;15138;51.012;4.692;2023-02-28T02:27:28;0.60;99.90
27747;DHT22;15138;51.012;4.692;2023-02-28T02:33:37;0.50;99.90
27747;DHT22;15138;51.012;4.692;2023-02-28T02:36:13;0.50;99.90
27747;DHT22;15138;51.012;4.692;2023-02-28T02:38:45;0.50;99.90
27747;DHT22;15138;51.012;4.692;2023-02-28T02:41:19;0.50;99.90
27747;DHT22;15138;51.012;4.692;2023-02-28T02:43:53;0.50;99.90
27747;DHT22;15138;51.012;4.692;2023-02-28T02:46:28;0.50;99.90
27747;DHT22;15138;51.012;4.692;2023-02-28T02:48:59;0.50;99.90
27747;DHT22;15138;51.012;4.692;2023-02-28T02:51:30;0.50;99.90
27747;DHT22;15138;51.012;4.692;2023-02-28T02:54:05;0.50;99.90
27747;DHT22;15138;51.012;4.692;2023-02-28T02:56:39;0.50;99.90
27747;DHT22;15138;51.012;4.692;2023-02-28T02:59:11;0.50;99.90
27747;DHT22;15138;51.012;4.692;2023-02-28T03:01:41;0.50;99.90
27747;DHT22;15138;51.012;4.692;2023-02-28T03:04:13;0.40;99.90
27747;DHT22;15138;51.012;4.692;2023-02-28T03:06:45;0.40;99.90
27747;DHT22;15138;51.012;4.692;2023-02-28T03:09:14;0.40;99.90
27747;DHT22;15138;51.012;4.692;2023-02-28T03:11:42;0.40;99.90
27747;DHT22;15138;51.012;4.692;2023-02-28T03:14:23;0.50;99.90
27747;DHT22;15138;51.012;4.692;2023-02-28T03:17:11;0.40;99.90
27747;DHT22;15138;51.012;4.692;2023-02-28T03:19:55;0.40;99.90
27747;DHT22;15138;51.012;4.692;2023-02-28T03:22:52;0.40;99.90
27747;DHT22;15138;51.012;4.692;2023-02-28T03:25:33;0.40;99.90
27747;DHT22;15138;51.012;4.692;2023-02-28T03:28:09;0.40;99.90
27747;DHT22;15138;51.012;4.692;2023-02-28T03:30:49;0.30;99.90
27747;DHT22;15138;51.012;4.692;2023-02-28T03:33:23;0.30;99.90
27747;DHT22;15138;51.012;4.692;2023-02-28T03:35:56;0.30;99.90
27747;DHT22;15138;51.012;4.692;2023-02-28T03:38:31;0.30;99.90
27747;DHT22;15138;51.012;4.692;2023-02-28T03:41:05;0.30;99.90
27747;DHT22;15138;51.012;4.692;2023-02-28T03:43:36;0.30;99.90
27747;DHT22;15138;51.012;4.692;2023-02-28T03:46:10;0.30;99.90
27747;DHT22;15138;51.012;4.692;2023-02-28T03:48:43;0.30;99.90
27747;DHT22;15138;51.012;4.692;2023-02-28T03:51:15;0.30;99.90
27747;DHT22;15138;51.012;4.692;2023-02-28T03:53:49;0.30;99.90
27747;DHT22;15138;51.012;4.692;2023-02-28T03:56:21;0.30;99.90
27747;DHT22;15138;51.012;4.692;2023-02-28T03:58:55;0.20;99.90
27747;DHT22;15138;51.012;4.692;2023-02-28T04:01:30;0.30;99.90
27747;DHT22;15138;51.012;4.692;2023-02-28T04:04:00;0.30;99.90
27747;DHT22;15138;51.012;4.692;2023-02-28T04:06:31;0.20;99.90
27747;DHT22;15138;51.012;4.692;2023-02-28T04:09:02;0.30;99.90
27747;DHT22;15138;51.012;4.692;2023-02-28T04:11:34;0.30;99.90
27747;DHT22;15138;51.012;4.692;2023-02-28T04:14:04;0.30;99.90
27747;DHT22;15138;51.012;4.692;2023-02-28T04:16:35;0.30;99.90
27747;DHT22;15138;51.012;4.692;2023-02-28T04:19:05;0.30;99.90
27747;DHT22;15138;51.012;4.692;2023-02-28T04:21:35;0.20;99.90
27747;DHT22;15138;51.012;4.692;2023-02-28T04:24:06;0.20;99.90
27747;DHT22;15138;51.012;4.692;2023-02-28T04:26:36;0.30;99.90
27747;DHT22;15138;51.012;4.692;2023-02-28T04:29:05;0.40;99.90
27747;DHT22;15138;51.012;4.692;2023-02-28T04:31:34;0.40;99.90
27747;DHT22;15138;51.012;4.692;2023-02-28T04:34:02;0.50;99.90
27747;DHT22;15138;51.012;4.692;2023-02-28T04:36:30;0.40;99.90
27747;DHT22;15138;51.012;4.692;2023-02-28T04:38:59;0.50;99.90
27747;DHT22;15138;51.012;4.692;2023-02-28T04:41:29;0.50;99.90
27747;DHT22;15138;51.012;4.692;2023-02-28T04:43:59;0.40;99.90
27747;DHT22;15138;51.012;4.692;2023-02-28T04:46:27;0.50;99.90
27747;DHT22;15138;51.012;4.692;2023-02-28T04:48:56;0.60;99.90
27747;DHT22;15138;51.012;4.692;2023-02-28T04:51:25;0.60;99.90
27747;DHT22;15138;51.012;4.692;2023-02-28T04:53:54;0.50;99.90
27747;DHT22;15138;51.012;4.692;2023-02-28T04:56:23;0.50;99.90
27747;DHT22;15138;51.012;4.692;2023-02-28T04:58:53;0.60;99.90
27747;DHT22;15138;51.012;4.692;2023-02-28T05:01:23;0.60;99.90
27747;DHT22;15138;51.012;4.692;2023-02-28T05:03:55;0.70;99.90
27747;DHT22;15138;51.012;4.692;2023-02-28T05:06:26;0.70;99.90
27747;DHT22;15138;51.012;4.692;2023-02-28T05:08:55;0.70;99.90
27747;DHT22;15138;51.012;4.692;2023-02-28T05:11:25;0.80;99.90
27747;DHT22;15138;51.012;4.692;2023-02-28T05:13:55;0.80;99.90
27747;DHT22;15138;51.012;4.692;2023-02-28T05:16:24;0.90;99.90
27747;DHT22;15138;51.012;4.692;2023-02-28T05:18:52;0.90;99.90
27747;DHT22;15138;51.012;4.692;2023-02-28T05:21:25;0.90;99.90
27747;DHT22;15138;51.012;4.692;2023-02-28T05:23:55;0.90;99.90
27747;DHT22;15138;51.012;4.692;2023-02-28T05:26:24;1.00;99.90
27747;DHT22;15138;51.012;4.692;2023-02-28T05:28:52;1.00;99.90
27747;DHT22;15138;51.012;4.692;2023-02-28T05:31:22;0.90;99.90
27747;DHT22;15138;51.012;4.692;2023-02-28T05:33:51;1.00;99.90
27747;DHT22;15138;51.012;4.692;2023-02-28T05:36:19;1.00;99.90
27747;DHT22;15138;51.012;4.692;2023-02-28T05:38:48;1.10;99.90
27747;DHT22;15138;51.012;4.692;2023-02-28T05:41:17;1.00;99.90
27747;DHT22;15138;51.012;4.692;2023-02-28T05:43:46;1.10;99.90
27747;DHT22;15138;51.012;4.692;2023-02-28T05:46:16;1.10;99.90
27747;DHT22;15138;51.012;4.692;2023-02-28T05:48:48;1.10;99.90
27747;DHT22;15138;51.012;4.692;2023-02-28T05:51:17;1.10;99.90
27747;DHT22;15138;51.012;4.692;2023-02-28T05:53:46;1.30;99.90
27747;DHT22;15138;51.012;4.692;2023-02-28T05:56:15;1.30;99.90
27747;DHT22;15138;51.012;4.692;2023-02-28T05:58:43;1.30;99.90
27747;DHT22;15138;51.012;4.692;2023-02-28T06:01:23;1.30;99.90
27747;DHT22;15138;51.012;4.692;2023-02-28T06:03:53;1.40;99.90
27747;DHT22;15138;51.012;4.692;2023-02-28T06:06:22;1.50;99.90
27747;DHT22;15138;51.012;4.692;2023-02-28T06:08:50;1.40;99.90
27747;DHT22;15138;51.012;4.692;2023-02-28T06:11:18;1.50;99.90
27747;DHT22;15138;51.012;4.692;2023-02-28T06:13:47;1.40;99.90
27747;DHT22;15138;51.012;4.692;2023-02-28T06:16:16;1.50;99.90
27747;DHT22;15138;51.012;4.692;2023-02-28T06:18:44;1.50;99.90
27747;DHT22;15138;51.012;4.692;2023-02-28T06:21:14;1.50;99.90
27747;DHT22;15138;51.012;4.692;2023-02-28T06:23:42;1.50;99.90
27747;DHT22;15138;51.012;4.692;2023-02-28T06:26:11;1.60;99.90
27747;DHT22;15138;51.012;4.692;2023-02-28T06:28:39;1.60;99.90
27747;DHT22;15138;51.012;4.692;2023-02-28T06:31:09;1.70;99.90
27747;DHT22;15138;51.012;4.692;2023-02-28T06:33:38;1.60;99.90
27747;DHT22;15138;51.012;4.692;2023-02-28T06:36:08;1.60;99.90
27747;DHT22;15138;51.012;4.692;2023-02-28T06:38:39;1.70;99.90
27747;DHT22;15138;51.012;4.692;2023-02-28T06:41:08;1.70;99.90
27747;DHT22;15138;51.012;4.692;2023-02-28T06:43:38;1.70;99.90
27747;DHT22;15138;51.012;4.692;2023-02-28T06:46:10;1.80;99.90
27747;DHT22;15138;51.012;4.692;2023-02-28T06:48:39;1.80;99.90
27747;DHT22;15138;51.012;4.692;2023-02-28T06:51:09;1.90;99.90
27747;DHT22;15138;51.012;4.692;2023-02-28T06:53:40;1.90;99.90
27747;DHT22;15138;51.012;4.692;2023-02-28T06:56:10;2.00;99.90
27747;DHT22;15138;51.012;4.692;2023-02-28T06:58:39;2.10;99.90
27747;DHT22;15138;51.012;4.692;2023-02-28T07:01:08;2.20;99.90
27747;DHT22;15138;51.012;4.692;2023-02-28T07:03:37;2.30;99.90
27747;DHT22;15138;51.012;4.692;2023-02-28T07:06:05;2.50;99.90
27747;DHT22;15138;51.012;4.692;2023-02-28T07:08:34;2.60;99.90
27747;DHT22;15138;51.012;4.692;2023-02-28T07:11:05;2.60;99.90
27747;DHT22;15138;51.012;4.692;2023-02-28T07:13:33;2.70;99.90
27747;DHT22;15138;51.012;4.692;2023-02-28T07:16:03;2.80;99.90
27747;DHT22;15138;51.012;4.692;2023-02-28T07:18:32;3.00;99.90
27747;DHT22;15138;51.012;4.692;2023-02-28T07:21:02;3.10;99.90
27747;DHT22;15138;51.012;4.692;2023-02-28T07:23:31;3.30;99.90
27747;DHT22;15138;51.012;4.692;2023-02-28T07:25:59;3.40;99.90
27747;DHT22;15138;51.012;4.692;2023-02-28T07:28:29;3.70;99.90
27747;DHT22;15138;51.012;4.692;2023-02-28T07:31:02;3.90;99.90
27747;DHT22;15138;51.012;4.692;2023-02-28T07:33:30;4.10;99.90
27747;DHT22;15138;51.012;4.692;2023-02-28T07:36:03;4.40;99.90
27747;DHT22;15138;51.012;4.692;2023-02-28T07:38:33;4.70;99.90
27747;DHT22;15138;51.012;4.692;2023-02-28T07:41:02;4.70;99.90
27747;DHT22;15138;51.012;4.692;2023-02-28T07:43:33;5.00;99.90
27747;DHT22;15138;51.012;4.692;2023-02-28T07:46:03;5.30;99.90
27747;DHT22;15138;51.012;4.692;2023-02-28T07:48:31;5.50;99.90
27747;DHT22;15138;51.012;4.692;2023-02-28T07:51:00;5.80;99.90
27747;DHT22;15138;51.012;4.692;2023-02-28T07:53:29;6.00;99.90
27747;DHT22;15138;51.012;4.692;2023-02-28T07:55:59;6.30;99.90
27747;DHT22;15138;51.012;4.692;2023-02-28T07:58:28;7.00;99.90
27747;DHT22;15138;51.012;4.692;2023-02-28T08:01:05;6.90;99.90
27747;DHT22;15138;51.012;4.692;2023-02-28T08:03:34;7.20;99.90
27747;DHT22;15138;51.012;4.692;2023-02-28T08:06:03;7.20;99.90
27747;DHT22;15138;51.012;4.692;2023-02-28T08:08:31;7.50;99.90
27747;DHT22;15138;51.012;4.692;2023-02-28T08:11:01;7.70;99.90
27747;DHT22;15138;51.012;4.692;2023-02-28T08:13:30;8.00;99.90
27747;DHT22;15138;51.012;4.692;2023-02-28T08:16:01;8.40;99.90
27747;DHT22;15138;51.012;4.692;2023-02-28T08:18:30;8.70;99.90
27747;DHT22;15138;51.012;4.692;2023-02-28T08:21:06;8.50;99.90
27747;DHT22;15138;51.012;4.692;2023-02-28T08:23:34;8.90;99.90
27747;DHT22;15138;51.012;4.692;2023-02-28T08:26:03;8.90;99.90
27747;DHT22;15138;51.012;4.692;2023-02-28T08:28:34;9.20;99.90
27747;DHT22;15138;51.012;4.692;2023-02-28T08:31:09;9.50;99.90
27747;DHT22;15138;51.012;4.692;2023-02-28T08:33:38;9.90;99.90
27747;DHT22;15138;51.012;4.692;2023-02-28T08:36:08;10.30;99.90
27747;DHT22;15138;51.012;4.692;2023-02-28T08:38:37;10.50;99.90
27747;DHT22;15138;51.012;4.692;2023-02-28T08:41:07;10.50;99.90
27747;DHT22;15138;51.012;4.692;2023-02-28T08:43:37;10.60;99.90
27747;DHT22;15138;51.012;4.692;2023-02-28T08:46:08;11.00;99.90
27747;DHT22;15138;51.012;4.692;2023-02-28T08:48:39;11.10;99.90
27747;DHT22;15138;51.012;4.692;2023-02-28T08:51:09;11.10;99.90
27747;DHT22;15138;51.012;4.692;2023-02-28T08:53:39;11.30;99.90
27747;DHT22;15138;51.012;4.692;2023-02-28T08:56:09;11.50;99.90
27747;DHT22;15138;51.012;4.692;2023-02-28T08:58:37;11.10;99.90
27747;DHT22;15138;51.012;4.692;2023-02-28T09:01:12;11.40;99.90
27747;DHT22;15138;51.012;4.692;2023-02-28T09:03:42;11.60;99.90
27747;DHT22;15138;51.012;4.692;2023-02-28T09:06:14;11.40;99.90
27747;DHT22;15138;51.012;4.692;2023-02-28T09:08:43;12.00;99.90
27747;DHT22;15138;51.012;4.692;2023-02-28T09:11:11;12.60;99.90
27747;DHT22;15138;51.012;4.692;2023-02-28T09:13:40;12.20;99.00
27747;DHT22;15138;51.012;4.692;2023-02-28T09:16:11;12.60;99.90
27747;DHT22;15138;51.012;4.692;2023-02-28T09:18:40;12.70;99.50
27747;DHT22;15138;51.012;4.692;2023-02-28T09:21:10;12.90;99.90
27747;DHT22;15138;51.012;4.692;2023-02-28T09:23:41;13.10;98.50
27747;DHT22;15138;51.012;4.692;2023-02-28T09:26:13;13.30;99.80
27747;DHT22;15138;51.012;4.692;2023-02-28T09:28:42;13.60;96.70
27747;DHT22;15138;51.012;4.692;2023-02-28T09:31:14;13.60;97.40
27747;DHT22;15138;51.012;4.692;2023-02-28T09:33:43;13.80;99.20
27747;DHT22;15138;51.012;4.692;2023-02-28T09:36:12;13.30;90.80
27747;DHT22;15138;51.012;4.692;2023-02-28T09:38:40;13.70;93.10
27747;DHT22;15138;51.012;4.692;2023-02-28T09:41:14;14.00;95.00
27747;DHT22;15138;51.012;4.692;2023-02-28T09:43:46;13.70;92.40
27747;DHT22;15138;51.012;4.692;2023-02-28T09:46:27;13.80;91.00
27747;DHT22;15138;51.012;4.692;2023-02-28T09:48:57;14.10;89.80
27747;DHT22;15138;51.012;4.692;2023-02-28T09:51:43;13.80;92.50
27747;DHT22;15138;51.012;4.692;2023-02-28T09:54:15;14.20;93.00
27747;DHT22;15138;51.012;4.692;2023-02-28T09:56:49;14.30;87.40
27747;DHT22;15138;51.012;4.692;2023-02-28T09:59:32;14.60;90.00
27747;DHT22;15138;51.012;4.692;2023-02-28T10:02:17;13.70;77.40
27747;DHT22;15138;51.012;4.692;2023-02-28T10:04:50;14.10;84.10
27747;DHT22;15138;51.012;4.692;2023-02-28T10:07:36;14.70;84.00
27747;DHT22;15138;51.012;4.692;2023-02-28T10:10:17;15.00;82.90
27747;DHT22;15138;51.012;4.692;2023-02-28T10:12:48;15.00;79.90
27747;DHT22;15138;51.012;4.692;2023-02-28T10:15:17;15.10;79.80
27747;DHT22;15138;51.012;4.692;2023-02-28T10:17:49;15.50;77.30
27747;DHT22;15138;51.012;4.692;2023-02-28T10:20:37;15.90;77.80
27747;DHT22;15138;51.012;4.692;2023-02-28T10:23:11;15.90;70.20
27747;DHT22;15138;51.012;4.692;2023-02-28T10:25:45;15.80;71.30
27747;DHT22;15138;51.012;4.692;2023-02-28T10:28:16;15.60;64.60
27747;DHT22;15138;51.012;4.692;2023-02-28T10:30:48;15.70;67.10
27747;DHT22;15138;51.012;4.692;2023-02-28T10:33:23;15.90;66.60
27747;DHT22;15138;51.012;4.692;2023-02-28T10:35:52;15.50;50.10
27747;DHT22;15138;51.012;4.692;2023-02-28T10:38:27;15.20;58.10
27747;DHT22;15138;51.012;4.692;2023-02-28T10:41:07;16.10;64.00
27747;DHT22;15138;51.012;4.692;2023-02-28T10:43:36;16.20;63.00
27747;DHT22;15138;51.012;4.692;2023-02-28T10:46:12;16.30;61.70
27747;DHT22;15138;51.012;4.692;2023-02-28T10:49:04;16.70;58.10
27747;DHT22;15138;51.012;4.692;2023-02-28T10:51:37;17.00;61.50
27747;DHT22;15138;51.012;4.692;2023-02-28T10:54:16;17.20;60.50
27747;DHT22;15138;51.012;4.692;2023-02-28T10:56:46;17.50;61.20
27747;DHT22;15138;51.012;4.692;2023-02-28T10:59:33;17.40;60.90
27747;DHT22;15138;51.012;4.692;2023-02-28T11:02:31;18.00;59.60
27747;DHT22;15138;51.012;4.692;2023-02-28T11:05:28;16.90;51.30
27747;DHT22;15138;51.012;4.692;2023-02-28T11:08:03;16.30;44.50
27747;DHT22;15138;51.012;4.692;2023-02-28T11:10:33;15.30;26.70
27747;DHT22;15138;51.012;4.692;2023-02-28T11:13:02;15.00;40.40
27747;DHT22;15138;51.012;4.692;2023-02-28T11:15:33;16.40;54.60
27747;DHT22;15138;51.012;4.692;2023-02-28T11:18:06;17.00;99.90
27747;DHT22;15138;51.012;4.692;2023-02-28T11:20:50;16.80;42.80
27747;DHT22;15138;51.012;4.692;2023-02-28T11:23:19;17.00;45.60
27747;DHT22;15138;51.012;4.692;2023-02-28T11:25:51;17.30;48.00
27747;DHT22;15138;51.012;4.692;2023-02-28T11:28:26;17.60;46.10
27747;DHT22;15138;51.012;4.692;2023-02-28T11:31:05;17.60;42.30
27747;DHT22;15138;51.012;4.692;2023-02-28T11:33:41;17.50;41.90
27747;DHT22;15138;51.012;4.692;2023-02-28T11:36:16;17.80;39.70
27747;DHT22;15138;51.012;4.692;2023-02-28T11:38:47;17.90;37.40
27747;DHT22;15138;51.012;4.692;2023-02-28T11:41:31;17.60;45.20
27747;DHT22;15138;51.012;4.692;2023-02-28T11:44:22;18.10;42.60
27747;DHT22;15138;51.012;4.692;2023-02-28T11:46:52;18.30;54.20
27747;DHT22;15138;51.012;4.692;2023-02-28T11:49:30;18.60;42.70
27747;DHT22;15138;51.012;4.692;2023-02-28T11:52:12;19.00;39.80
27747;DHT22;15138;51.012;4.692;2023-02-28T11:54:57;19.00;39.60
27747;DHT22;15138;51.012;4.692;2023-02-28T11:57:52;19.00;34.20
27747;DHT22;15138;51.012;4.692;2023-02-28T12:00:33;19.40;42.30
27747;DHT22;15138;51.012;4.692;2023-02-28T12:03:12;18.20;27.10
27747;DHT22;15138;51.012;4.692;2023-02-28T12:05:43;18.60;30.60
27747;DHT22;15138;51.012;4.692;2023-02-28T12:08:34;17.80;18.60
27747;DHT22;15138;51.012;4.692;2023-02-28T12:11:17;18.60;31.20
27747;DHT22;15138;51.012;4.692;2023-02-28T12:13:55;19.40;27.80
27747;DHT22;15138;51.012;4.692;2023-02-28T12:16:44;19.40;26.80
27747;DHT22;15138;51.012;4.692;2023-02-28T12:19:21;19.30;28.60
27747;DHT22;15138;51.012;4.692;2023-02-28T12:22:11;19.30;22.70
27747;DHT22;15138;51.012;4.692;2023-02-28T12:28:08;19.10;24.10
27747;DHT22;15138;51.012;4.692;2023-02-28T12:30:42;19.10;23.20
27747;DHT22;15138;51.012;4.692;2023-02-28T12:33:17;19.50;28.20
27747;DHT22;15138;51.012;4.692;2023-02-28T12:35:51;19.10;25.60
27747;DHT22;15138;51.012;4.692;2023-02-28T12:38:24;18.90;26.00
27747;DHT22;15138;51.012;4.692;2023-02-28T12:40:57;18.80;21.60
27747;DHT22;15138;51.012;4.692;2023-02-28T12:43:34;19.50;26.70
27747;DHT22;15138;51.012;4.692;2023-02-28T12:46:09;19.80;24.70
27747;DHT22;15138;51.012;4.692;2023-02-28T12:48:42;20.00;28.00
27747;DHT22;15138;51.012;4.692;2023-02-28T12:51:12;19.20;17.50
27747;DHT22;15138;51.012;4.692;2023-02-28T12:53:58;19.60;23.90
27747;DHT22;15138;51.012;4.692;2023-02-28T12:56:38;19.00;26.50
27747;DHT22;15138;51.012;4.692;2023-02-28T12:59:19;19.40;24.30
27747;DHT22;15138;51.012;4.692;2023-02-28T13:02:02;18.70;22.40
27747;DHT22;15138;51.012;4.692;2023-02-28T13:08:04;18.80;22.00
27747;DHT22;15138;51.012;4.692;2023-02-28T13:10:42;19.10;16.40
27747;DHT22;15138;51.012;4.692;2023-02-28T13:13:17;19.00;20.40
27747;DHT22;15138;51.012;4.692;2023-02-28T13:16:03;18.60;20.90
27747;DHT22;15138;51.012;4.692;2023-02-28T13:18:35;18.50;18.20
27747;DHT22;15138;51.012;4.692;2023-02-28T13:21:07;18.40;15.70
27747;DHT22;15138;51.012;4.692;2023-02-28T13:24:01;18.50;16.50
27747;DHT22;15138;51.012;4.692;2023-02-28T13:29:55;19.20;17.80
27747;DHT22;15138;51.012;4.692;2023-02-28T13:32:42;18.90;15.80
27747;DHT22;15138;51.012;4.692;2023-02-28T13:35:36;18.70;8.30
27747;DHT22;15138;51.012;4.692;2023-02-28T13:38:32;19.40;15.50
27747;DHT22;15138;51.012;4.692;2023-02-28T13:41:43;18.70;8.10
27747;DHT22;15138;51.012;4.692;2023-02-28T13:44:16;18.70;15.10
27747;DHT22;15138;51.012;4.692;2023-02-28T13:47:22;18.50;17.70
27747;DHT22;15138;51.012;4.692;2023-02-28T13:49:54;18.40;14.90
27747;DHT22;15138;51.012;4.692;2023-02-28T13:52:24;18.60;17.70
27747;DHT22;15138;51.012;4.692;2023-02-28T13:54:59;18.50;11.40
27747;DHT22;15138;51.012;4.692;2023-02-28T13:57:44;18.30;10.60
27747;DHT22;15138;51.012;4.692;2023-02-28T14:00:21;18.50;10.50
27747;DHT22;15138;51.012;4.692;2023-02-28T14:03:05;18.80;12.00
27747;DHT22;15138;51.012;4.692;2023-02-28T14:05:37;18.80;12.50
27747;DHT22;15138;51.012;4.692;2023-02-28T14:08:10;18.90;12.70
27747;DHT22;15138;51.012;4.692;2023-02-28T14:10:44;18.20;10.70
27747;DHT22;15138;51.012;4.692;2023-02-28T14:13:38;18.30;69.50
27747;DHT22;15138;51.012;4.692;2023-02-28T14:16:14;17.50;10.20
27747;DHT22;15138;51.012;4.692;2023-02-28T14:18:49;17.50;6.40
27747;DHT22;15138;51.012;4.692;2023-02-28T14:21:24;18.10;12.20
27747;DHT22;15138;51.012;4.692;2023-02-28T14:24:16;18.30;10.80
27747;DHT22;15138;51.012;4.692;2023-02-28T14:27:00;17.60;6.70
27747;DHT22;15138;51.012;4.692;2023-02-28T14:30:02;17.70;11.00
27747;DHT22;15138;51.012;4.692;2023-02-28T14:32:37;16.90;1.00
27747;DHT22;15138;51.012;4.692;2023-02-28T14:35:20;17.30;9.20
27747;DHT22;15138;51.012;4.692;2023-02-28T14:37:53;17.10;11.20
27747;DHT22;15138;51.012;4.692;2023-02-28T14:40:27;16.40;14.30
27747;DHT22;15138;51.012;4.692;2023-02-28T14:42:59;16.50;17.20
27747;DHT22;15138;51.012;4.692;2023-02-28T14:45:30;16.80;14.20
27747;DHT22;15138;51.012;4.692;2023-02-28T14:47:59;16.80;10.70
27747;DHT22;15138;51.012;4.692;2023-02-28T14:50:31;16.30;6.20
27747;DHT22;15138;51.012;4.692;2023-02-28T14:53:01;16.40;7.80
27747;DHT22;15138;51.012;4.692;2023-02-28T14:55:31;16.40;8.20
27747;DHT22;15138;51.012;4.692;2023-02-28T14:58:02;16.10;7.50
27747;DHT22;15138;51.012;4.692;2023-02-28T15:00:32;15.40;15.70
27747;DHT22;15138;51.012;4.692;2023-02-28T15:03:18;15.70;13.60
27747;DHT22;15138;51.012;4.692;2023-02-28T15:05:57;15.50;10.80
27747;DHT22;15138;51.012;4.692;2023-02-28T15:08:27;15.50;18.50
27747;DHT22;15138;51.012;4.692;2023-02-28T15:10:57;15.60;10.60
27747;DHT22;15138;51.012;4.692;2023-02-28T15:13:33;15.50;9.10
27747;DHT22;15138;51.012;4.692;2023-02-28T15:16:06;15.80;7.70
27747;DHT22;15138;51.012;4.692;2023-02-28T15:18:47;15.50;5.40
27747;DHT22;15138;51.012;4.692;2023-02-28T15:21:18;15.20;4.50
27747;DHT22;15138;51.012;4.692;2023-02-28T15:23:53;15.00;6.90
27747;DHT22;15138;51.012;4.692;2023-02-28T15:26:25;15.20;7.00
27747;DHT22;15138;51.012;4.692;2023-02-28T15:28:58;15.20;6.40
27747;DHT22;15138;51.012;4.692;2023-02-28T15:31:28;14.80;10.90
27747;DHT22;15138;51.012;4.692;2023-02-28T15:34:18;14.40;10.30
27747;DHT22;15138;51.012;4.692;2023-02-28T15:36:48;13.90;9.20
27747;DHT22;15138;51.012;4.692;2023-02-28T15:39:21;13.80;9.10
27747;DHT22;15138;51.012;4.692;2023-02-28T15:41:50;13.50;3.50
27747;DHT22;15138;51.012;4.692;2023-02-28T15:44:27;14.10;10.40
27747;DHT22;15138;51.012;4.692;2023-02-28T15:47:02;13.90;7.40
27747;DHT22;15138;51.012;4.692;2023-02-28T15:49:37;13.80;9.80
27747;DHT22;15138;51.012;4.692;2023-02-28T15:52:14;13.50;6.70
27747;DHT22;15138;51.012;4.692;2023-02-28T15:54:46;13.00;2.30
27747;DHT22;15138;51.012;4.692;2023-02-28T15:57:18;13.10;2.30
27747;DHT22;15138;51.012;4.692;2023-02-28T15:59:51;13.00;4.70
27747;DHT22;15138;51.012;4.692;2023-02-28T16:02:22;13.10;7.00
27747;DHT22;15138;51.012;4.692;2023-02-28T16:05:02;12.90;4.60
27747;DHT22;15138;51.012;4.692;2023-02-28T16:07:42;12.80;6.80
27747;DHT22;15138;51.012;4.692;2023-02-28T16:10:13;12.30;4.50
27747;DHT22;15138;51.012;4.692;2023-02-28T16:12:42;11.90;3.60
27747;DHT22;15138;51.012;4.692;2023-02-28T16:20:18;11.90;1.00
27747;DHT22;15138;51.012;4.692;2023-02-28T16:22:47;11.80;3.90
27747;DHT22;15138;51.012;4.692;2023-02-28T16:25:19;11.60;7.70
27747;DHT22;15138;51.012;4.692;2023-02-28T16:27:49;11.70;8.50
27747;DHT22;15138;51.012;4.692;2023-02-28T16:30:20;11.30;6.60
27747;DHT22;15138;51.012;4.692;2023-02-28T16:32:50;11.10;7.30
27747;DHT22;15138;51.012;4.692;2023-02-28T16:35:19;10.80;4.40
27747;DHT22;15138;51.012;4.692;2023-02-28T16:37:48;10.60;5.20